Time;durP1;ratioP1;P1;durP2;ratioP2;P2;SDS_P1;SDS_P2;PMS_P1;PMS_P2;Temp;Humidity;BMP_temperature;BMP_pressure;BME280_temperature;BME280_humidity;BME280_pressure;Samples;Min_cycle;Max_cycle;Signal;HPM_P1;HPM_P2
2023/12/14 00:01:10;;;;;;;8.38;3.33;;;6.30;99.90;;;;;;6321205;28;20156;-86
2023/12/14 00:04:12;;;;;;;10.23;3.08;;;6.30;99.90;;;;;;6309830;28;20060;-85
2023/12/14 00:07:15;;;;;;;9.57;3.42;;;6.30;99.90;;;;;;6320887;28;20052;-85
2023/12/14 00:10:17;;;;;;;11.80;3.50;;;6.30;99.90;;;;;;6319232;28;20056;-85
2023/12/14 00:13:19;;;;;;;10.07;3.05;;;6.20;99.90;;;;;;6316315;28;20315;-85
2023/12/14 00:16:21;;;;;;;12.82;3.47;;;6.10;99.90;;;;;;6319077;28;20055;-84
2023/12/14 00:19:22;;;;;;;8.73;3.22;;;6.10;99.90;;;;;;6319978;28;20131;-84
2023/12/14 00:22:24;;;;;;;10.27;3.20;;;6.10;99.90;;;;;;6313252;28;20442;-84
2023/12/14 00:25:26;;;;;;;9.70;2.60;;;6.10;99.90;;;;;;6318758;28;20534;-85
2023/12/14 00:28:27;;;;;;;9.30;2.85;;;6.10;99.90;;;;;;6299035;28;20399;-85
2023/12/14 00:31:34;;;;;;;10.55;3.05;;;6.10;99.90;;;;;;6306404;28;20056;-86
2023/12/14 00:34:36;;;;;;;7.32;2.90;;;6.20;99.90;;;;;;6318370;28;20101;-85
2023/12/14 00:37:38;;;;;;;9.43;3.08;;;6.20;99.90;;;;;;6307035;28;20052;-85
2023/12/14 00:40:39;;;;;;;8.85;3.13;;;6.20;99.90;;;;;;6317048;28;20198;-85
2023/12/14 00:43:41;;;;;;;6.90;2.80;;;6.20;99.90;;;;;;6317753;28;20400;-85
2023/12/14 00:46:43;;;;;;;9.68;2.85;;;6.00;99.90;;;;;;6298126;28;20058;-85
2023/12/14 00:49:44;;;;;;;11.00;3.15;;;6.10;99.90;;;;;;6317728;28;20097;-84
2023/12/14 00:52:46;;;;;;;9.77;2.95;;;6.10;99.90;;;;;;6317898;28;20044;-84
2023/12/14 00:55:48;;;;;;;11.70;3.15;;;6.10;99.90;;;;;;6292913;28;20524;-85
2023/12/14 00:58:49;;;;;;;10.88;3.00;;;6.10;99.90;;;;;;6317857;28;20048;-84
2023/12/14 01:01:51;;;;;;;13.98;3.38;;;6.10;99.90;;;;;;6317486;28;20051;-84
2023/12/14 01:04:53;;;;;;;8.20;2.85;;;6.10;99.90;;;;;;6308405;28;20090;-84
2023/12/14 01:07:56;;;;;;;11.10;3.50;;;6.10;99.90;;;;;;6318568;28;20423;-84
2023/12/14 01:10:57;;;;;;;7.82;3.15;;;6.10;99.90;;;;;;6318145;28;20063;-84
2023/12/14 01:13:59;;;;;;;9.35;3.15;;;6.10;99.90;;;;;;6304367;28;20092;-84
2023/12/14 01:17:00;;;;;;;12.82;3.40;;;6.10;99.90;;;;;;6316381;28;20071;-84
2023/12/14 01:20:02;;;;;;;12.10;3.22;;;6.20;99.90;;;;;;6317048;28;20895;-85
2023/12/14 01:23:04;;;;;;;11.63;3.20;;;6.20;99.90;;;;;;6318795;28;20510;-83
2023/12/14 01:26:05;;;;;;;8.65;3.67;;;6.10;99.90;;;;;;6293472;28;20060;-83
2023/12/14 01:29:07;;;;;;;10.65;3.97;;;6.20;99.90;;;;;;6314255;28;20077;-85
2023/12/14 01:32:09;;;;;;;15.40;3.40;;;6.10;99.90;;;;;;6292473;28;20049;-84
2023/12/14 01:35:11;;;;;;;9.13;3.13;;;6.20;99.90;;;;;;6316325;28;20052;-85
2023/12/14 01:38:13;;;;;;;12.10;3.60;;;6.20;99.90;;;;;;6311123;28;20423;-85
2023/12/14 01:41:15;;;;;;;8.07;2.97;;;6.20;99.90;;;;;;6316689;28;20048;-84
2023/12/14 01:44:17;;;;;;;9.07;3.45;;;6.30;99.90;;;;;;6299557;28;20067;-84
2023/12/14 01:47:18;;;;;;;14.02;3.55;;;6.20;99.90;;;;;;6316738;28;20049;-85
2023/12/14 01:50:20;;;;;;;8.43;3.00;;;6.20;99.90;;;;;;6303596;28;20062;-85
2023/12/14 01:53:21;;;;;;;8.70;3.40;;;6.20;99.90;;;;;;6317590;28;20063;-84
2023/12/14 01:56:23;;;;;;;9.95;2.95;;;6.20;99.90;;;;;;6318330;28;20568;-85
2023/12/14 01:59:25;;;;;;;10.60;3.50;;;6.20;99.90;;;;;;6306040;28;20442;-85
2023/12/14 02:02:27;;;;;;;13.07;3.97;;;6.20;99.90;;;;;;6317807;28;20059;-85
2023/12/14 02:05:29;;;;;;;10.50;3.53;;;6.20;99.90;;;;;;6312502;28;20059;-85
2023/12/14 02:08:31;;;;;;;10.50;3.40;;;6.20;99.90;;;;;;6319225;28;20048;-85
2023/12/14 02:11:32;;;;;;;9.55;3.03;;;6.20;99.90;;;;;;6321029;28;20047;-84
2023/12/14 02:14:34;;;;;;;8.70;3.40;;;6.20;99.90;;;;;;6318264;28;20048;-85
2023/12/14 02:17:36;;;;;;;9.23;3.63;;;6.20;99.90;;;;;;6321086;28;20058;-85
2023/12/14 02:20:37;;;;;;;11.52;3.58;;;6.20;99.90;;;;;;6307024;28;20135;-84
2023/12/14 02:23:39;;;;;;;11.05;3.80;;;6.10;99.90;;;;;;6322157;28;20551;-85
2023/12/14 02:26:40;;;;;;;14.43;3.88;;;6.20;99.90;;;;;;6322598;28;20044;-85
2023/12/14 02:29:42;;;;;;;9.93;3.65;;;6.10;99.90;;;;;;6294926;28;20044;-84
2023/12/14 02:32:44;;;;;;;9.38;3.30;;;6.10;99.90;;;;;;6322189;28;20052;-84
2023/12/14 02:35:45;;;;;;;11.13;3.70;;;6.10;99.90;;;;;;6320795;28;20118;-84
2023/12/14 02:38:47;;;;;;;12.70;3.63;;;6.20;99.90;;;;;;6320307;28;20418;-84
2023/12/14 02:41:49;;;;;;;9.73;3.13;;;6.20;99.90;;;;;;6320607;28;20193;-84
2023/12/14 02:44:50;;;;;;;12.13;3.67;;;6.20;99.90;;;;;;6319082;28;20133;-84
2023/12/14 02:47:54;;;;;;;9.68;3.83;;;6.10;99.90;;;;;;6322141;28;20040;-84
2023/12/14 02:50:55;;;;;;;12.73;4.10;;;6.10;99.90;;;;;;6306907;28;20059;-84
2023/12/14 02:53:57;;;;;;;9.18;3.20;;;6.10;99.90;;;;;;6321547;28;20055;-84
2023/12/14 02:56:59;;;;;;;12.85;3.38;;;6.10;99.90;;;;;;6321732;28;20055;-84
2023/12/14 03:00:01;;;;;;;10.65;2.95;;;6.10;99.90;;;;;;6304807;28;20052;-85
2023/12/14 03:03:03;;;;;;;11.52;3.50;;;6.10;99.90;;;;;;6320121;28;20423;-84
2023/12/14 03:06:04;;;;;;;10.85;3.17;;;6.00;99.90;;;;;;6305956;28;20048;-84
2023/12/14 03:09:06;;;;;;;11.60;3.40;;;6.00;99.90;;;;;;6318364;28;20418;-84
2023/12/14 03:12:08;;;;;;;10.50;3.08;;;6.00;99.90;;;;;;6321358;28;20396;-85
2023/12/14 03:15:09;;;;;;;9.30;3.28;;;6.00;99.90;;;;;;6318935;28;20078;-85
2023/12/14 03:18:11;;;;;;;12.00;3.25;;;6.00;99.90;;;;;;6322285;28;20063;-85
2023/12/14 03:21:13;;;;;;;11.48;3.20;;;5.90;99.90;;;;;;6299784;28;20082;-84
2023/12/14 03:24:14;;;;;;;8.18;3.17;;;5.90;99.90;;;;;;6322045;28;20044;-84
2023/12/14 03:27:16;;;;;;;14.25;3.72;;;5.80;99.90;;;;;;6325632;28;20048;-85
2023/12/14 03:30:17;;;;;;;12.05;3.25;;;5.70;99.90;;;;;;6297473;28;20053;-84
2023/12/14 03:33:19;;;;;;;15.05;4.13;;;5.60;99.90;;;;;;6321637;28;20120;-84
2023/12/14 03:36:22;;;;;;;10.45;3.75;;;5.50;99.90;;;;;;6320435;28;20047;-84
2023/12/14 03:39:24;;;;;;;13.57;4.05;;;5.40;99.90;;;;;;6320869;28;20048;-84
2023/12/14 03:42:25;;;;;;;14.15;3.80;;;5.20;99.90;;;;;;6319214;28;20055;-83
2023/12/14 03:45:27;;;;;;;11.57;3.72;;;5.10;99.90;;;;;;6316776;28;20048;-83
2023/12/14 03:48:29;;;;;;;15.18;4.00;;;5.00;99.90;;;;;;6295181;28;20515;-83
2023/12/14 03:51:30;;;;;;;10.10;3.90;;;4.90;99.90;;;;;;6334707;28;20060;-83
2023/12/14 03:54:32;;;;;;;10.93;3.88;;;4.70;99.90;;;;;;6320410;28;20048;-83
2023/12/14 03:57:34;;;;;;;15.73;4.50;;;4.70;99.90;;;;;;6294552;28;20411;-83
2023/12/14 04:00:35;;;;;;;18.33;4.47;;;4.60;99.90;;;;;;6316515;28;20048;-82
2023/12/14 04:03:37;;;;;;;10.77;4.03;;;4.50;99.90;;;;;;6314628;28;20060;-83
2023/12/14 04:06:39;;;;;;;13.95;4.03;;;4.50;99.90;;;;;;6317896;28;20476;-83
2023/12/14 04:09:40;;;;;;;9.93;4.13;;;4.40;99.90;;;;;;6319657;28;20437;-83
2023/12/14 04:12:42;;;;;;;12.65;3.88;;;4.30;99.90;;;;;;6319226;28;20052;-84
2023/12/14 04:15:43;;;;;;;15.10;3.88;;;4.30;99.90;;;;;;6315910;28;20052;-83
2023/12/14 04:18:45;;;;;;;11.93;3.65;;;4.20;99.90;;;;;;6292934;28;20052;-83
2023/12/14 04:21:47;;;;;;;13.80;4.03;;;4.20;99.90;;;;;;6318940;28;20054;-83
2023/12/14 04:24:48;;;;;;;10.93;3.90;;;4.10;99.90;;;;;;6319532;28;20052;-83
2023/12/14 04:27:50;;;;;;;13.05;3.60;;;4.10;99.90;;;;;;6297692;28;20081;-83
2023/12/14 04:30:51;;;;;;;9.18;3.42;;;4.00;99.90;;;;;;6315067;28;20567;-83
2023/12/14 04:33:53;;;;;;;12.90;4.13;;;3.90;99.90;;;;;;6294144;28;20404;-83
2023/12/14 04:36:57;;;;;;;14.35;4.20;;;3.90;99.90;;;;;;6333599;28;20055;-83
2023/12/14 04:39:59;;;;;;;12.90;4.03;;;3.90;99.90;;;;;;6318901;28;20052;-84
2023/12/14 04:43:00;;;;;;;14.85;3.67;;;3.80;99.90;;;;;;6297158;28;20134;-83
2023/12/14 04:46:03;;;;;;;12.98;3.20;;;3.80;99.90;;;;;;6317663;28;20052;-83
2023/12/14 04:49:04;;;;;;;9.30;3.30;;;3.70;99.90;;;;;;6299013;28;20477;-83
2023/12/14 04:52:06;;;;;;;9.55;3.67;;;3.70;99.90;;;;;;6318879;28;20074;-84
2023/12/14 04:55:08;;;;;;;11.27;3.88;;;3.70;99.90;;;;;;6292881;28;20419;-84
2023/12/14 04:58:10;;;;;;;12.02;3.65;;;3.80;99.90;;;;;;6308365;28;20063;-84
2023/12/14 05:01:13;;;;;;;14.32;4.10;;;3.80;99.90;;;;;;6311157;28;20073;-84
2023/12/14 05:04:14;;;;;;;11.40;4.45;;;3.90;99.90;;;;;;6316422;28;20147;-84
2023/12/14 05:07:16;;;;;;;14.75;4.50;;;3.90;99.90;;;;;;6316412;28;20059;-84
2023/12/14 05:10:17;;;;;;;11.65;3.85;;;4.00;99.90;;;;;;6316793;28;20048;-84
2023/12/14 05:13:19;;;;;;;13.13;4.43;;;4.00;99.90;;;;;;6295257;28;20059;-84
2023/12/14 05:16:21;;;;;;;9.93;3.95;;;4.10;99.90;;;;;;6317585;28;20040;-84
2023/12/14 05:19:22;;;;;;;12.73;4.55;;;4.10;99.90;;;;;;6314006;28;20052;-84
2023/12/14 05:22:24;;;;;;;12.00;4.35;;;4.20;99.90;;;;;;6318246;28;20051;-84
2023/12/14 05:25:25;;;;;;;11.70;4.65;;;4.20;99.90;;;;;;6292727;28;20058;-85
2023/12/14 05:28:27;;;;;;;11.70;4.22;;;4.20;99.90;;;;;;6305916;28;20055;-83
2023/12/14 05:31:29;;;;;;;11.45;4.30;;;4.20;99.90;;;;;;6317373;28;20063;-82
2023/12/14 05:34:30;;;;;;;15.63;4.38;;;4.30;99.90;;;;;;6317898;28;20044;-84
2023/12/14 05:37:32;;;;;;;14.10;4.10;;;4.30;99.90;;;;;;6317043;28;20063;-82
2023/12/14 05:40:34;;;;;;;12.10;4.38;;;4.40;99.90;;;;;;6293494;28;20519;-82
2023/12/14 05:43:36;;;;;;;12.20;4.68;;;4.30;99.90;;;;;;6309943;28;20204;-83
2023/12/14 05:46:38;;;;;;;10.85;4.53;;;4.30;99.90;;;;;;6321179;28;20070;-84
2023/12/14 05:49:39;;;;;;;14.85;4.68;;;4.40;99.90;;;;;;6321146;28;20077;-84
2023/12/14 05:52:41;;;;;;;12.05;3.90;;;4.40;99.90;;;;;;6322206;28;20078;-84
2023/12/14 05:55:43;;;;;;;15.27;4.28;;;4.30;99.90;;;;;;6320732;28;20061;-83
2023/12/14 05:58:44;;;;;;;12.82;3.97;;;4.40;99.90;;;;;;6320252;28;20055;-82
2023/12/14 06:01:47;;;;;;;10.52;3.67;;;4.30;99.90;;;;;;6322382;28;20517;-82
2023/12/14 06:04:49;;;;;;;12.23;3.90;;;4.30;99.90;;;;;;6306044;28;20063;-82
2023/12/14 06:07:51;;;;;;;15.68;4.70;;;4.30;99.90;;;;;;6321207;28;20857;-83
2023/12/14 06:10:52;;;;;;;11.75;3.90;;;4.30;99.90;;;;;;6320724;28;20058;-83
2023/12/14 06:13:57;;;;;;;16.45;4.53;;;4.30;99.90;;;;;;6320361;28;20044;-83
2023/12/14 06:16:58;;;;;;;16.42;5.13;;;4.30;99.90;;;;;;6320934;28;20060;-83
2023/12/14 06:20:00;;;;;;;16.25;5.63;;;4.30;99.90;;;;;;6322000;28;20479;-82
2023/12/14 06:23:02;;;;;;;13.52;4.95;;;4.30;99.90;;;;;;6322202;28;20048;-83
2023/12/14 06:26:04;;;;;;;12.77;4.78;;;4.30;99.90;;;;;;6322817;28;20146;-82
2023/12/14 06:29:05;;;;;;;19.75;5.32;;;4.30;99.90;;;;;;6318973;28;20703;-85
2023/12/14 06:32:07;;;;;;;14.20;4.82;;;4.30;99.90;;;;;;6320615;28;20063;-84
2023/12/14 06:35:09;;;;;;;14.32;5.32;;;4.20;99.90;;;;;;6322055;28;20056;-85
2023/12/14 06:38:15;;;;;;;17.00;4.68;;;4.30;99.90;;;;;;6320484;28;20150;-84
2023/12/14 06:41:17;;;;;;;15.80;4.72;;;4.30;99.90;;;;;;6319050;28;20498;-85
2023/12/14 06:44:19;;;;;;;13.60;4.80;;;4.20;99.90;;;;;;6317737;28;20052;-85
2023/12/14 06:47:20;;;;;;;15.27;4.35;;;4.20;99.90;;;;;;6320636;28;20167;-86
2023/12/14 06:50:22;;;;;;;10.43;4.00;;;4.20;99.90;;;;;;6295701;28;20059;-84
2023/12/14 06:53:24;;;;;;;11.93;4.53;;;4.20;99.90;;;;;;6317387;28;20044;-84
2023/12/14 06:56:25;;;;;;;15.18;4.25;;;4.30;99.90;;;;;;6320806;28;20059;-84
2023/12/14 06:59:27;;;;;;;15.40;4.60;;;4.30;99.90;;;;;;6318050;28;20430;-83
2023/12/14 07:02:29;;;;;;;17.48;4.20;;;4.30;99.90;;;;;;6320675;28;20059;-83
2023/12/14 07:05:32;;;;;;;16.55;4.60;;;4.20;99.90;;;;;;6317936;28;20133;-83
2023/12/14 07:08:34;;;;;;;13.10;4.00;;;4.20;99.90;;;;;;6320261;28;20505;-84
2023/12/14 07:11:35;;;;;;;14.63;3.90;;;4.20;99.90;;;;;;6296940;28;20055;-84
2023/12/14 07:14:37;;;;;;;9.57;3.70;;;4.20;99.90;;;;;;6318105;28;20411;-84
2023/12/14 07:17:39;;;;;;;13.38;3.92;;;4.20;99.90;;;;;;6319763;28;20059;-83
2023/12/14 07:20:41;;;;;;;10.63;3.85;;;4.20;99.90;;;;;;6319637;28;20487;-84
2023/12/14 07:23:42;;;;;;;11.18;3.58;;;4.20;99.90;;;;;;6319883;28;20148;-83
2023/12/14 07:26:44;;;;;;;10.85;3.67;;;4.20;99.90;;;;;;6320031;28;20525;-83
2023/12/14 07:29:46;;;;;;;11.75;3.60;;;4.20;99.90;;;;;;6292273;28;20079;-81
2023/12/14 07:32:48;;;;;;;12.60;3.83;;;4.20;99.90;;;;;;6319882;28;20499;-81
2023/12/14 07:35:49;;;;;;;11.73;3.58;;;4.30;99.90;;;;;;6320487;28;20087;-81
2023/12/14 07:38:51;;;;;;;13.18;3.80;;;4.30;99.90;;;;;;6320451;28;20495;-82
2023/12/14 07:41:56;;;;;;;12.00;3.40;;;4.30;99.90;;;;;;6312068;28;20063;-82
2023/12/14 07:44:57;;;;;;;13.55;3.80;;;4.30;99.90;;;;;;6320328;28;20439;-83
2023/12/14 07:47:59;;;;;;;10.27;3.50;;;4.40;99.90;;;;;;6294113;28;20107;-83
2023/12/14 07:51:01;;;;;;;12.15;4.13;;;4.40;99.90;;;;;;6319302;28;20056;-83
2023/12/14 07:54:04;;;;;;;10.60;3.60;;;4.40;99.90;;;;;;6320290;28;20393;-83
2023/12/14 07:57:05;;;;;;;12.13;3.42;;;4.50;99.90;;;;;;6294143;28;20053;-83
2023/12/14 08:00:10;;;;;;;11.80;3.17;;;4.50;99.90;;;;;;6319250;28;20051;-83
2023/12/14 08:03:12;;;;;;;14.25;3.60;;;4.50;99.90;;;;;;6318133;28;20047;-83
2023/12/14 08:06:13;;;;;;;9.43;3.47;;;4.50;99.90;;;;;;6318023;28;20064;-82
2023/12/14 08:09:17;;;;;;;10.43;3.75;;;4.50;99.90;;;;;;6302022;28;20418;-83
2023/12/14 08:12:18;;;;;;;13.73;3.53;;;4.50;99.90;;;;;;6319424;28;20422;-83
2023/12/14 08:15:20;;;;;;;12.77;3.72;;;4.50;99.90;;;;;;6317295;28;20047;-83
2023/12/14 08:18:22;;;;;;;12.50;3.60;;;4.50;99.90;;;;;;6310644;28;20060;-83
2023/12/14 08:21:23;;;;;;;14.07;3.58;;;4.50;99.90;;;;;;6317726;28;20111;-86
2023/12/14 08:24:25;;;;;;;14.93;3.78;;;4.50;99.90;;;;;;6320242;28;20048;-88
2023/12/14 08:27:27;;;;;;;10.95;3.42;;;4.50;99.90;;;;;;6319182;28;20082;-85
2023/12/14 08:30:28;;;;;;;16.45;3.55;;;4.50;99.90;;;;;;6317984;28;20511;-83
2023/12/14 08:33:30;;;;;;;13.75;4.18;;;4.50;99.90;;;;;;6298441;28;20048;-86
2023/12/14 08:36:32;;;;;;;13.05;3.30;;;4.50;99.90;;;;;;6298164;28;20078;-87
2023/12/14 08:39:34;;;;;;;15.82;3.83;;;4.60;99.90;;;;;;6310911;28;20079;-92
2023/12/14 08:42:36;;;;;;;15.27;3.67;;;4.70;99.90;;;;;;6320943;28;20048;-88
2023/12/14 08:45:39;;;;;;;8.35;3.28;;;4.70;99.90;;;;;;6296411;28;20045;-91
2023/12/14 08:48:40;;;;;;;14.02;4.18;;;4.70;99.90;;;;;;6302154;28;20067;-92
2023/12/14 08:51:43;;;;;;;13.07;4.20;;;4.80;99.90;;;;;;6326028;28;20059;-88
2023/12/14 08:54:44;;;;;;;14.82;4.50;;;4.80;99.90;;;;;;6329623;28;20101;-90
2023/12/14 08:57:46;;;;;;;13.65;4.10;;;4.70;99.90;;;;;;6328761;28;20048;-85
2023/12/14 09:00:52;;;;;;;11.52;3.92;;;4.70;99.90;;;;;;6312746;28;20057;-86
2023/12/14 09:03:54;;;;;;;13.88;3.95;;;4.70;99.90;;;;;;6324670;28;20092;-92
2023/12/14 09:06:57;;;;;;;13.95;4.45;;;4.70;99.90;;;;;;6340016;28;20048;-90
2023/12/14 09:09:59;;;;;;;13.05;4.63;;;4.70;99.90;;;;;;6328448;28;20051;-89
2023/12/14 09:13:04;;;;;;;12.50;4.50;;;4.80;99.90;;;;;;6314997;28;20048;-89
2023/12/14 09:16:05;;;;;;;15.13;3.53;;;4.80;99.90;;;;;;6327634;28;20052;-90
2023/12/14 09:19:07;;;;;;;11.07;3.53;;;4.70;99.90;;;;;;6300059;28;20059;-88
2023/12/14 09:22:09;;;;;;;9.07;3.08;;;4.80;99.90;;;;;;6324564;28;20106;-89
2023/12/14 09:25:11;;;;;;;8.98;3.13;;;4.80;99.90;;;;;;6324992;28;20491;-88
2023/12/14 09:28:13;;;;;;;11.75;3.80;;;4.90;99.90;;;;;;6307432;28;20059;-90
2023/12/14 09:31:15;;;;;;;10.80;2.90;;;5.00;99.90;;;;;;6325616;28;20048;-86
2023/12/14 09:34:17;;;;;;;11.10;3.53;;;5.00;99.90;;;;;;6318662;28;20510;-88
2023/12/14 09:37:19;;;;;;;12.00;3.58;;;5.10;99.90;;;;;;6322831;28;20079;-86
2023/12/14 09:40:22;;;;;;;12.98;3.50;;;5.20;99.90;;;;;;6322812;28;20048;-87
2023/12/14 09:43:23;;;;;;;13.40;4.00;;;5.30;99.90;;;;;;6302431;28;20135;-88
2023/12/14 09:46:25;;;;;;;11.10;3.75;;;5.40;99.90;;;;;;6325290;28;20054;-87
2023/12/14 09:49:30;;;;;;;10.50;3.30;;;5.50;99.90;;;;;;6318351;28;20048;-86
2023/12/14 09:52:33;;;;;;;12.15;3.38;;;5.50;99.90;;;;;;6323713;28;20059;-86
2023/12/14 09:55:35;;;;;;;12.85;3.50;;;5.60;99.90;;;;;;6326697;28;20044;-85
2023/12/14 09:58:36;;;;;;;9.55;3.28;;;5.60;99.90;;;;;;6309335;28;20044;-86
2023/12/14 10:01:38;;;;;;;12.30;3.10;;;5.60;99.90;;;;;;6326235;28;20054;-90
2023/12/14 10:04:40;;;;;;;7.93;3.22;;;5.60;99.90;;;;;;6310660;28;20118;-90
2023/12/14 10:07:43;;;;;;;10.73;3.35;;;5.80;99.90;;;;;;6327632;28;20077;-90
2023/12/14 10:10:45;;;;;;;9.38;3.17;;;5.90;99.90;;;;;;6327817;28;20070;-93
2023/12/14 10:13:46;;;;;;;9.35;3.25;;;6.00;99.90;;;;;;6316335;28;20076;-92
2023/12/14 10:16:48;;;;;;;11.98;3.05;;;6.10;99.90;;;;;;6317464;28;20052;-93
2023/12/14 10:19:50;;;;;;;11.95;2.63;;;6.20;99.90;;;;;;6329209;28;20044;-92
2023/12/14 10:22:55;;;;;;;7.40;2.38;;;6.20;99.90;;;;;;6325619;28;20108;-94
2023/12/14 10:25:57;;;;;;;7.65;2.45;;;6.30;99.90;;;;;;6320721;28;20056;-91
2023/12/14 10:28:59;;;;;;;7.40;2.53;;;6.50;99.90;;;;;;6322220;28;20522;-90
2023/12/14 10:32:01;;;;;;;7.70;2.00;;;6.70;99.90;;;;;;6303441;28;20053;-91
2023/12/14 10:35:03;;;;;;;7.28;1.58;;;7.10;99.90;;;;;;6319893;28;20040;-90
2023/12/14 10:38:05;;;;;;;5.05;1.88;;;7.50;99.90;;;;;;6303857;28;20148;-91
2023/12/14 10:41:07;;;;;;;5.50;1.70;;;7.80;99.30;;;;;;6329314;28;20385;-90
2023/12/14 10:44:09;;;;;;;8.43;2.10;;;7.80;97.60;;;;;;6316707;28;20494;-87
2023/12/14 10:47:31;;;;;;;8.05;2.17;;;7.80;97.50;;;;;;6309930;28;20045;-89
2023/12/14 10:50:33;;;;;;;9.23;2.28;;;7.60;98.30;;;;;;6333089;28;20086;-88
2023/12/14 10:53:35;;;;;;;7.97;2.65;;;7.40;99.90;;;;;;6329614;28;20410;-89
2023/12/14 10:56:36;;;;;;;6.03;2.05;;;7.40;99.90;;;;;;6332052;28;20407;-89
2023/12/14 10:59:38;;;;;;;6.47;2.40;;;7.30;99.90;;;;;;6330770;28;20361;-89
2023/12/14 11:02:40;;;;;;;8.50;2.17;;;7.30;99.90;;;;;;6312132;28;20044;-88
2023/12/14 11:05:42;;;;;;;9.95;2.58;;;7.20;99.90;;;;;;6336304;28;20063;-88
2023/12/14 11:08:44;;;;;;;8.95;2.40;;;7.20;99.90;;;;;;6338964;28;20048;-88
2023/12/14 11:11:46;;;;;;;7.68;2.20;;;7.30;99.90;;;;;;6336672;28;20101;-87
2023/12/14 11:14:47;;;;;;;6.70;2.00;;;7.30;99.90;;;;;;6332893;28;20104;-88
2023/12/14 11:17:49;;;;;;;6.30;2.10;;;7.30;99.90;;;;;;6335682;28;20473;-90
2023/12/14 11:20:51;;;;;;;9.25;2.30;;;7.30;99.90;;;;;;6335454;28;20048;-87
2023/12/14 11:23:52;;;;;;;9.38;2.80;;;7.30;99.90;;;;;;6327984;28;20127;-86
2023/12/14 11:26:54;;;;;;;7.78;2.35;;;7.30;99.90;;;;;;6328351;28;20063;-89
2023/12/14 11:29:55;;;;;;;7.63;2.40;;;7.30;99.90;;;;;;6324479;28;20071;-87
2023/12/14 11:32:57;;;;;;;9.27;2.55;;;7.30;99.90;;;;;;6325253;28;20427;-88
2023/12/14 11:35:59;;;;;;;7.97;2.55;;;7.50;99.90;;;;;;6325415;28;20509;-89
2023/12/14 11:39:01;;;;;;;8.02;2.75;;;7.60;99.90;;;;;;6323527;28;20058;-88
2023/12/14 11:42:02;;;;;;;9.70;3.00;;;7.60;99.90;;;;;;6316072;28;20040;-90
2023/12/14 11:45:04;;;;;;;10.40;3.30;;;7.70;99.90;;;;;;6300516;28;20048;-92
2023/12/14 11:48:06;;;;;;;9.15;2.92;;;7.70;99.90;;;;;;6327545;28;20051;-90
2023/12/14 11:51:08;;;;;;;5.80;2.72;;;8.00;99.90;;;;;;6325869;28;20558;-89
2023/12/14 11:54:10;;;;;;;9.15;2.72;;;8.10;99.90;;;;;;6331866;28;20066;-90
2023/12/14 11:57:11;;;;;;;10.70;3.00;;;8.00;99.90;;;;;;6325359;28;20060;-87
2023/12/14 12:00:13;;;;;;;10.27;3.08;;;8.00;99.90;;;;;;6321060;28;20067;-87
2023/12/14 12:03:15;;;;;;;6.88;2.65;;;7.90;99.90;;;;;;6337965;28;20093;-87
2023/12/14 12:06:17;;;;;;;7.00;2.70;;;7.80;99.90;;;;;;6324925;28;20063;-87
2023/12/14 12:09:19;;;;;;;6.78;2.53;;;7.80;99.90;;;;;;6365643;27;20051;-87
2023/12/14 12:12:21;;;;;;;7.22;3.35;;;7.80;99.90;;;;;;6348751;28;20430;-88
2023/12/14 12:15:22;;;;;;;9.95;3.00;;;8.10;99.90;;;;;;6320290;28;20715;-87
2023/12/14 12:18:25;;;;;;;8.65;2.83;;;8.10;99.90;;;;;;6321827;28;20059;-87
2023/12/14 12:21:27;;;;;;;8.25;2.85;;;8.20;99.90;;;;;;6296878;28;20520;-85
2023/12/14 12:24:29;;;;;;;9.73;3.30;;;8.10;99.90;;;;;;6323027;28;20190;-87
2023/12/14 12:27:34;;;;;;;12.07;3.20;;;7.90;99.90;;;;;;6321917;28;20127;-86
2023/12/14 12:30:36;;;;;;;10.82;3.60;;;7.90;99.90;;;;;;6317661;28;20135;-89
2023/12/14 12:33:41;;;;;;;8.35;3.30;;;7.80;99.90;;;;;;6327119;28;20048;-85
2023/12/14 12:36:43;;;;;;;7.93;3.50;;;7.70;99.90;;;;;;6328873;28;20759;-86
2023/12/14 12:39:45;;;;;;;8.60;3.28;;;7.60;99.90;;;;;;6324077;28;20067;-89
2023/12/14 12:42:48;;;;;;;8.55;3.75;;;7.60;99.90;;;;;;6320897;28;20052;-89
2023/12/14 12:45:50;;;;;;;8.43;3.63;;;7.50;99.90;;;;;;6315499;28;20048;-86
2023/12/14 12:48:52;;;;;;;10.45;3.47;;;7.60;99.90;;;;;;6298728;28;20056;-88
2023/12/14 12:51:54;;;;;;;8.48;3.00;;;7.60;99.90;;;;;;6339355;28;20052;-88
2023/12/14 12:54:58;;;;;;;8.50;3.10;;;7.70;99.90;;;;;;6323312;28;20055;-89
2023/12/14 12:58:04;;;;;;;8.35;3.08;;;7.70;99.90;;;;;;6323372;28;20048;-85
2023/12/14 13:01:07;;;;;;;9.32;3.13;;;7.70;99.90;;;;;;6299825;28;20054;-90
2023/12/14 13:04:09;;;;;;;9.85;2.70;;;7.70;99.90;;;;;;6310392;28;20059;-89
2023/12/14 13:07:12;;;;;;;7.70;2.80;;;7.70;99.90;;;;;;6323287;28;20062;-85
2023/12/14 13:10:13;;;;;;;8.10;2.90;;;7.90;99.90;;;;;;6327131;28;20052;-90
2023/12/14 13:13:31;;;;;;;9.77;2.95;;;7.80;99.90;;;;;;6311620;28;20051;-91
2023/12/14 13:16:33;;;;;;;8.27;3.08;;;7.80;99.90;;;;;;6323133;28;20082;-88
2023/12/14 13:19:35;;;;;;;7.18;2.90;;;7.70;99.90;;;;;;6320737;28;20060;-88
2023/12/14 13:22:36;;;;;;;8.93;3.40;;;7.70;99.90;;;;;;6321621;28;20051;-89
2023/12/14 13:25:38;;;;;;;10.00;3.25;;;7.70;99.90;;;;;;6319877;28;20059;-86
2023/12/14 13:28:40;;;;;;;9.20;3.40;;;7.70;99.90;;;;;;6320776;28;20472;-88
2023/12/14 13:31:42;;;;;;;8.27;3.20;;;7.70;99.90;;;;;;6323514;28;20059;-88
2023/12/14 13:34:43;;;;;;;12.55;3.55;;;7.70;99.90;;;;;;6299737;28;20112;-90
2023/12/14 13:37:46;;;;;;;7.72;3.00;;;7.70;99.90;;;;;;6332243;28;20129;-86
2023/12/14 13:40:48;;;;;;;11.90;3.55;;;7.70;99.90;;;;;;6319415;28;20309;-86
2023/12/14 13:43:51;;;;;;;9.88;3.50;;;7.70;99.90;;;;;;6321077;28;20052;-89
2023/12/14 13:46:53;;;;;;;8.85;3.40;;;7.70;99.90;;;;;;6310828;28;20056;-89
2023/12/14 13:49:55;;;;;;;8.13;3.13;;;7.70;99.90;;;;;;6321906;28;20079;-89
2023/12/14 13:52:56;;;;;;;11.15;3.58;;;7.70;99.90;;;;;;6321034;28;20056;-90
2023/12/14 13:55:58;;;;;;;9.55;3.53;;;7.80;99.90;;;;;;6322538;28;20138;-89
2023/12/14 13:59:00;;;;;;;8.27;3.60;;;7.80;99.90;;;;;;6301573;28;20135;-88
2023/12/14 14:02:02;;;;;;;11.88;3.65;;;7.70;99.90;;;;;;6340289;28;20053;-90
2023/12/14 14:05:04;;;;;;;9.30;3.53;;;7.70;99.90;;;;;;6342814;28;20055;-91
2023/12/14 14:08:07;;;;;;;10.35;3.58;;;7.70;99.90;;;;;;6344999;28;20048;-90
2023/12/14 14:11:17;;;;;;;12.65;4.05;;;7.70;99.90;;;;;;6317760;28;20404;-90
2023/12/14 14:14:19;;;;;;;12.02;3.63;;;7.70;99.90;;;;;;6341487;28;20059;-90
2023/12/14 14:17:21;;;;;;;10.88;3.72;;;7.70;99.90;;;;;;6344140;28;20048;-90
2023/12/14 14:20:24;;;;;;;8.63;3.78;;;7.70;99.90;;;;;;6329152;28;20128;-90
2023/12/14 14:23:26;;;;;;;12.95;4.20;;;7.70;99.90;;;;;;6329352;28;20107;-88
2023/12/14 14:26:28;;;;;;;9.45;4.03;;;7.70;99.90;;;;;;6323030;28;20062;-89
2023/12/14 14:29:30;;;;;;;12.60;4.38;;;7.70;99.90;;;;;;6340679;28;20068;-89
2023/12/14 14:32:32;;;;;;;9.02;3.97;;;7.80;99.90;;;;;;6340337;28;20135;-89
2023/12/14 14:35:37;;;;;;;11.23;4.45;;;7.80;99.90;;;;;;6330565;28;20388;-89
2023/12/14 14:38:39;;;;;;;13.88;4.60;;;7.70;99.90;;;;;;6307731;28;20063;-89
2023/12/14 14:41:41;;;;;;;11.73;4.68;;;7.80;99.90;;;;;;6326536;28;20044;-88
2023/12/14 14:44:43;;;;;;;13.40;4.65;;;7.80;99.90;;;;;;6321479;28;20052;-89
2023/12/14 14:47:44;;;;;;;12.70;4.97;;;7.70;99.90;;;;;;6325882;28;20051;-88
2023/12/14 14:50:46;;;;;;;9.30;4.30;;;7.80;99.90;;;;;;6316626;28;20047;-88
2023/12/14 14:53:48;;;;;;;11.75;4.20;;;7.80;99.90;;;;;;6326130;28;20052;-88
2023/12/14 14:56:50;;;;;;;11.70;4.50;;;7.90;99.90;;;;;;6326642;28;20047;-89
2023/12/14 14:59:52;;;;;;;11.32;5.18;;;7.80;99.90;;;;;;6322653;28;20406;-90
2023/12/14 15:02:53;;;;;;;9.18;4.32;;;7.90;99.90;;;;;;6322940;28;20055;-88
2023/12/14 15:05:55;;;;;;;10.15;4.57;;;7.90;99.90;;;;;;6325070;28;20064;-89
2023/12/14 15:08:57;;;;;;;12.20;4.75;;;8.00;99.90;;;;;;6301601;28;20150;-88
2023/12/14 15:11:59;;;;;;;13.57;5.20;;;8.00;99.90;;;;;;6332070;28;20048;-92
2023/12/14 15:15:00;;;;;;;11.60;5.07;;;8.00;99.90;;;;;;6305382;28;20131;-89
2023/12/14 15:18:02;;;;;;;11.75;5.22;;;8.10;99.90;;;;;;6326421;28;20052;-91
2023/12/14 15:21:04;;;;;;;12.73;5.10;;;8.10;99.90;;;;;;6328006;28;20050;-91
2023/12/14 15:24:09;;;;;;;10.77;5.07;;;8.10;99.90;;;;;;6307095;28;20041;-94
2023/12/14 15:27:16;;;;;;;13.35;5.30;;;8.10;99.90;;;;;;6305318;28;20412;-94
2023/12/14 15:30:18;;;;;;;10.02;4.82;;;8.00;99.90;;;;;;6328722;28;20122;-87
2023/12/14 15:33:20;;;;;;;11.88;5.30;;;8.00;99.90;;;;;;6322857;28;20059;-86
2023/12/14 15:36:22;;;;;;;10.90;5.20;;;8.10;99.90;;;;;;6308924;28;20479;-89
2023/12/14 15:39:24;;;;;;;11.90;5.57;;;8.10;99.90;;;;;;6324627;28;20080;-92
2023/12/14 15:42:26;;;;;;;13.35;5.72;;;8.10;99.90;;;;;;6327568;28;20345;-88
2023/12/14 15:45:32;;;;;;;10.95;5.38;;;8.10;99.90;;;;;;6299206;28;20059;-87
2023/12/14 15:48:35;;;;;;;10.45;6.22;;;8.10;99.90;;;;;;6318721;28;20051;-88
2023/12/14 15:51:37;;;;;;;11.40;6.43;;;8.10;99.90;;;;;;6321567;28;20125;-93